Time;durP1;ratioP1;P1;durP2;ratioP2;P2;SDS_P1;SDS_P2;PMS_P1;PMS_P2;Temp;Humidity;BMP_temperature;BMP_pressure;BME280_temperature;BME280_humidity;BME280_pressure;Samples;Min_cycle;Max_cycle;Signal;HPM_P1;HPM_P2
2024/01/20 00:01:24;;;;;;;0.30;0.30;;;;;;;;;;5069634;28;20086;-76
2024/01/20 00:03:52;;;;;;;0.70;0.70;;;;;;;;;;5057690;28;20048;-76
2024/01/20 00:06:19;;;;;;;0.55;0.55;;;;;;;;;;5062777;28;20044;-75
2024/01/20 00:08:47;;;;;;;0.10;0.10;;;;;;;;;;5068354;28;20048;-76
2024/01/20 00:11:14;;;;;;;1.67;1.27;;;;;;;;;;5060640;28;20078;-76
2024/01/20 00:13:42;;;;;;;0.40;0.40;;;;;;;;;;5065834;28;20044;-75
2024/01/20 00:16:10;;;;;;;0.38;0.38;;;;;;;;;;5066703;28;20051;-77
2024/01/20 00:18:37;;;;;;;0.50;0.50;;;;;;;;;;5063455;28;20041;-76
2024/01/20 00:21:05;;;;;;;0.10;0.10;;;;;;;;;;5064713;28;20502;-77
2024/01/20 00:23:33;;;;;;;4.43;3.95;;;;;;;;;;5066291;28;20076;-77
2024/01/20 00:26:00;;;;;;;0.77;0.63;;;;;;;;;;5064640;28;20059;-76
2024/01/20 00:28:28;;;;;;;0.30;0.30;;;;;;;;;;5069303;28;20105;-74
2024/01/20 00:30:55;;;;;;;1.02;1.02;;;;;;;;;;5068723;28;20450;-76
2024/01/20 00:33:23;;;;;;;0.40;0.40;;;;;;;;;;5068065;28;20059;-77
2024/01/20 00:35:51;;;;;;;0.10;0.10;;;;;;;;;;5066777;28;20045;-77
2024/01/20 00:38:19;;;;;;;0.32;0.32;;;;;;;;;;5046285;28;20097;-76
2024/01/20 00:40:47;;;;;;;0.35;0.35;;;;;;;;;;5069041;28;20405;-77
2024/01/20 00:43:15;;;;;;;0.10;0.10;;;;;;;;;;5067806;28;20052;-77
2024/01/20 00:45:42;;;;;;;0.22;0.22;;;;;;;;;;5061382;28;20110;-77
2024/01/20 00:48:10;;;;;;;0.22;0.22;;;;;;;;;;5069406;28;20053;-76
2024/01/20 00:50:37;;;;;;;1.23;1.23;;;;;;;;;;5062396;28;20121;-77
2024/01/20 00:53:05;;;;;;;3.92;3.22;;;;;;;;;;5068179;28;20530;-77
2024/01/20 00:55:32;;;;;;;0.20;0.20;;;;;;;;;;5044485;28;20046;-75
2024/01/20 00:57:59;;;;;;;0.80;0.75;;;;;;;;;;5068366;28;20040;-76
2024/01/20 01:00:27;;;;;;;0.55;0.55;;;;;;;;;;5064678;28;20067;-77
2024/01/20 01:02:55;;;;;;;0.35;0.35;;;;;;;;;;5045478;28;20153;-75
2024/01/20 01:05:22;;;;;;;0.10;0.10;;;;;;;;;;5066885;28;20433;-76
2024/01/20 01:07:50;;;;;;;0.10;0.10;;;;;;;;;;5053913;28;20060;-77
2024/01/20 01:10:18;;;;;;;0.63;0.55;;;;;;;;;;5059804;28;20548;-76
2024/01/20 01:12:45;;;;;;;0.17;0.17;;;;;;;;;;5068337;28;20498;-76
2024/01/20 01:15:12;;;;;;;0.10;0.10;;;;;;;;;;5067919;28;20524;-76
2024/01/20 01:17:40;;;;;;;0.77;0.77;;;;;;;;;;5068099;28;20299;-76
2024/01/20 01:20:11;;;;;;;2.58;0.95;;;;;;;;;;5068863;28;20054;-76
2024/01/20 01:22:38;;;;;;;1.77;1.67;;;;;;;;;;5062709;28;20498;-76
2024/01/20 01:25:08;;;;;;;0.20;0.20;;;;;;;;;;5068545;28;20051;-76
2024/01/20 01:27:36;;;;;;;1.30;1.30;;;;;;;;;;5068144;28;20519;-77
2024/01/20 01:30:03;;;;;;;0.68;0.68;;;;;;;;;;5064234;28;20044;-76
2024/01/20 01:32:31;;;;;;;0.70;0.50;;;;;;;;;;5062531;28;20040;-76
2024/01/20 01:34:58;;;;;;;0.88;0.88;;;;;;;;;;5052799;28;20331;-76
2024/01/20 01:37:26;;;;;;;0.77;0.77;;;;;;;;;;5066464;28;20083;-76
2024/01/20 01:39:53;;;;;;;2.63;1.67;;;;;;;;;;5056153;28;20052;-76
2024/01/20 01:42:21;;;;;;;1.23;1.10;;;;;;;;;;5067087;28;20040;-76
2024/01/20 01:44:48;;;;;;;0.38;0.28;;;;;;;;;;5062049;28;20493;-76
2024/01/20 01:47:16;;;;;;;1.90;1.80;;;;;;;;;;5068056;28;20423;-76
2024/01/20 01:49:44;;;;;;;0.68;0.68;;;;;;;;;;5049794;28;20049;-75
2024/01/20 01:52:12;;;;;;;0.22;0.22;;;;;;;;;;5064445;28;20055;-76
2024/01/20 01:54:40;;;;;;;0.40;0.40;;;;;;;;;;5065262;28;20052;-76
2024/01/20 01:57:08;;;;;;;1.63;1.00;;;;;;;;;;5065368;28;20413;-76
2024/01/20 01:59:35;;;;;;;0.50;0.50;;;;;;;;;;5067498;28;20056;-76
2024/01/20 02:02:03;;;;;;;0.57;0.57;;;;;;;;;;5058663;28;20046;-76
2024/01/20 02:04:30;;;;;;;0.32;0.32;;;;;;;;;;5066442;28;20040;-76
2024/01/20 02:06:58;;;;;;;0.88;0.82;;;;;;;;;;5065772;28;20127;-76
2024/01/20 02:09:26;;;;;;;0.10;0.10;;;;;;;;;;5046464;28;20056;-76
2024/01/20 02:11:53;;;;;;;7.07;5.38;;;;;;;;;;5064960;28;20045;-76
2024/01/20 02:14:21;;;;;;;2.80;2.58;;;;;;;;;;5060597;28;20406;-76
2024/01/20 02:16:49;;;;;;;1.55;0.65;;;;;;;;;;5066841;28;20051;-76
2024/01/20 02:19:16;;;;;;;1.05;1.05;;;;;;;;;;5062838;28;20106;-76
2024/01/20 02:21:44;;;;;;;0.98;0.98;;;;;;;;;;5063133;28;20075;-76
2024/01/20 02:24:12;;;;;;;1.88;1.08;;;;;;;;;;5064325;28;20490;-75
2024/01/20 02:26:39;;;;;;;0.25;0.25;;;;;;;;;;5058785;28;20051;-75
2024/01/20 02:29:07;;;;;;;0.55;0.55;;;;;;;;;;5064077;28;20513;-76
2024/01/20 02:31:34;;;;;;;0.73;0.73;;;;;;;;;;5067932;28;20135;-76
2024/01/20 02:34:02;;;;;;;0.10;0.10;;;;;;;;;;5060857;28;20044;-76
2024/01/20 02:36:29;;;;;;;3.63;3.08;;;;;;;;;;5066935;28;20120;-76
2024/01/20 02:38:57;;;;;;;5.90;4.72;;;;;;;;;;5067279;28;20513;-76
2024/01/20 02:41:24;;;;;;;0.47;0.47;;;;;;;;;;5066213;28;20603;-76
2024/01/20 02:43:52;;;;;;;0.43;0.43;;;;;;;;;;5066664;28;20106;-76
2024/01/20 02:46:19;;;;;;;0.30;0.30;;;;;;;;;;5058253;28;20524;-75
2024/01/20 02:48:46;;;;;;;3.30;3.00;;;;;;;;;;5061166;28;20058;-76
2024/01/20 02:51:14;;;;;;;0.90;0.90;;;;;;;;;;5048934;28;20353;-76
2024/01/20 02:53:42;;;;;;;3.33;3.03;;;;;;;;;;5065996;28;20040;-76
2024/01/20 02:56:09;;;;;;;0.30;0.30;;;;;;;;;;5051439;28;20140;-76
2024/01/20 02:58:37;;;;;;;3.42;3.13;;;;;;;;;;5067522;28;20109;-75
2024/01/20 03:01:06;;;;;;;4.28;2.85;;;;;;;;;;5067074;28;20110;-76
2024/01/20 03:03:33;;;;;;;2.28;2.17;;;;;;;;;;5066986;28;20456;-76
2024/01/20 03:06:02;;;;;;;1.20;1.10;;;;;;;;;;5066400;28;20083;-75
2024/01/20 03:08:30;;;;;;;1.60;1.20;;;;;;;;;;5066609;28;20144;-76
2024/01/20 03:10:57;;;;;;;0.55;0.55;;;;;;;;;;5066734;28;20052;-76
2024/01/20 03:13:24;;;;;;;1.25;1.20;;;;;;;;;;5066428;28;20056;-76
2024/01/20 03:15:52;;;;;;;2.22;1.83;;;;;;;;;;5054394;28;20053;-76
2024/01/20 03:18:19;;;;;;;1.52;1.45;;;;;;;;;;5084355;22;20048;-79
2024/01/20 03:20:47;;;;;;;0.40;0.40;;;;;;;;;;5082920;28;20052;-79
2024/01/20 03:23:14;;;;;;;0.10;0.10;;;;;;;;;;5083756;28;20040;-79
2024/01/20 03:25:42;;;;;;;0.22;0.22;;;;;;;;;;5080101;28;20093;-80
2024/01/20 03:28:09;;;;;;;1.08;1.05;;;;;;;;;;5077379;28;20444;-80
2024/01/20 03:30:37;;;;;;;16.55;9.25;;;;;;;;;;5078161;28;20544;-78
2024/01/20 03:33:04;;;;;;;0.10;0.10;;;;;;;;;;5077613;28;20037;-80
2024/01/20 03:35:32;;;;;;;0.17;0.17;;;;;;;;;;5076095;28;20399;-81
2024/01/20 03:37:59;;;;;;;3.33;3.00;;;;;;;;;;5076963;28;20143;-79
2024/01/20 03:40:27;;;;;;;0.65;0.65;;;;;;;;;;5071681;28;20474;-79
2024/01/20 03:42:56;;;;;;;0.50;0.50;;;;;;;;;;5077800;28;20063;-80
2024/01/20 03:45:23;;;;;;;3.63;2.78;;;;;;;;;;5078093;28;20048;-79
2024/01/20 03:47:51;;;;;;;1.77;1.67;;;;;;;;;;5074014;28;20151;-79
2024/01/20 03:50:18;;;;;;;1.40;1.30;;;;;;;;;;5081948;28;20520;-80
2024/01/20 03:52:46;;;;;;;1.88;1.77;;;;;;;;;;5079870;28;20051;-79
2024/01/20 03:55:13;;;;;;;1.02;1.02;;;;;;;;;;5078982;28;20073;-80
2024/01/20 03:57:41;;;;;;;0.63;0.63;;;;;;;;;;5087922;28;20517;-79
2024/01/20 04:00:09;;;;;;;1.45;1.35;;;;;;;;;;5077828;28;20559;-79
2024/01/20 04:02:37;;;;;;;2.17;2.08;;;;;;;;;;5080831;28;20052;-79
2024/01/20 04:05:04;;;;;;;1.10;1.02;;;;;;;;;;5083084;28;20047;-79
2024/01/20 04:07:32;;;;;;;3.20;1.40;;;;;;;;;;5082196;28;20284;-80
2024/01/20 04:09:59;;;;;;;2.08;1.95;;;;;;;;;;5077884;28;20052;-79
2024/01/20 04:12:27;;;;;;;3.08;2.30;;;;;;;;;;5079622;28;20466;-79
2024/01/20 04:14:55;;;;;;;3.85;2.80;;;;;;;;;;5082609;28;20316;-79
2024/01/20 04:17:23;;;;;;;4.47;1.20;;;;;;;;;;5083823;28;20065;-79
2024/01/20 04:19:50;;;;;;;0.22;0.22;;;;;;;;;;5085413;28;20048;-80
2024/01/20 04:22:18;;;;;;;0.65;0.65;;;;;;;;;;5085708;28;20119;-79
2024/01/20 04:24:45;;;;;;;1.55;1.45;;;;;;;;;;5088114;28;20156;-79
2024/01/20 04:27:13;;;;;;;0.25;0.25;;;;;;;;;;5089126;28;20117;-79
2024/01/20 04:29:40;;;;;;;1.02;1.00;;;;;;;;;;5084113;28;20048;-78
2024/01/20 04:32:07;;;;;;;1.17;1.10;;;;;;;;;;5084111;28;20044;-79
2024/01/20 04:34:35;;;;;;;0.88;0.88;;;;;;;;;;5084830;28;20048;-79
2024/01/20 04:37:02;;;;;;;2.38;2.17;;;;;;;;;;5086498;28;20119;-79
2024/01/20 04:39:30;;;;;;;2.35;2.15;;;;;;;;;;5089272;28;20117;-79
2024/01/20 04:41:57;;;;;;;0.40;0.40;;;;;;;;;;5083432;28;20189;-79
2024/01/20 04:44:24;;;;;;;0.68;0.68;;;;;;;;;;5087129;28;20048;-79
2024/01/20 04:46:52;;;;;;;0.40;0.40;;;;;;;;;;5076119;28;20067;-79
2024/01/20 04:49:19;;;;;;;1.30;1.23;;;;;;;;;;5083192;28;20040;-79
2024/01/20 04:51:47;;;;;;;2.40;1.35;;;;;;;;;;5085219;28;20520;-79
2024/01/20 04:54:14;;;;;;;0.32;0.20;;;;;;;;;;5084532;28;20051;-80
2024/01/20 04:56:42;;;;;;;1.23;1.23;;;;;;;;;;5079976;28;20524;-79
2024/01/20 04:59:09;;;;;;;0.52;0.52;;;;;;;;;;5084782;28;20547;-80
2024/01/20 05:01:37;;;;;;;3.88;2.65;;;;;;;;;;5058587;28;20044;-79
2024/01/20 05:04:07;;;;;;;0.20;0.20;;;;;;;;;;5069115;28;20071;-79
2024/01/20 05:06:34;;;;;;;1.52;1.42;;;;;;;;;;5080542;28;20471;-79
2024/01/20 05:09:02;;;;;;;2.25;2.15;;;;;;;;;;5081655;28;20067;-80
2024/01/20 05:11:30;;;;;;;0.55;0.55;;;;;;;;;;5065608;28;20137;-80
2024/01/20 05:13:57;;;;;;;0.20;0.20;;;;;;;;;;5075055;28;20125;-79
2024/01/20 05:16:25;;;;;;;3.97;2.22;;;;;;;;;;5080649;28;20113;-79
2024/01/20 05:18:52;;;;;;;0.32;0.32;;;;;;;;;;5082001;28;20044;-79
2024/01/20 05:21:20;;;;;;;1.50;1.50;;;;;;;;;;5075508;28;20040;-81
2024/01/20 05:23:47;;;;;;;7.28;1.98;;;;;;;;;;5077662;28;20555;-79
2024/01/20 05:26:15;;;;;;;1.05;0.95;;;;;;;;;;5081633;28;20206;-78
2024/01/20 05:28:43;;;;;;;1.35;1.02;;;;;;;;;;5083399;28;20039;-79
2024/01/20 05:31:11;;;;;;;3.03;2.75;;;;;;;;;;5081142;28;20121;-79
2024/01/20 05:33:38;;;;;;;2.33;2.13;;;;;;;;;;5083572;28;20040;-79
2024/01/20 05:36:06;;;;;;;0.95;0.95;;;;;;;;;;5081222;28;20074;-80
2024/01/20 05:38:33;;;;;;;4.90;3.03;;;;;;;;;;5079161;28;20478;-80
2024/01/20 05:41:01;;;;;;;0.60;0.60;;;;;;;;;;5079133;28;20052;-79
2024/01/20 05:43:28;;;;;;;3.45;2.78;;;;;;;;;;5081320;28;20044;-80
2024/01/20 05:45:56;;;;;;;5.30;4.05;;;;;;;;;;5081694;28;20059;-79
2024/01/20 05:48:24;;;;;;;0.93;0.93;;;;;;;;;;5077950;28;20588;-79
2024/01/20 05:50:51;;;;;;;3.30;2.30;;;;;;;;;;5080542;28;20056;-79
2024/01/20 05:53:20;;;;;;;0.75;0.75;;;;;;;;;;5080397;28;20036;-80
2024/01/20 05:55:47;;;;;;;2.30;2.10;;;;;;;;;;5077660;28;20131;-79
2024/01/20 05:58:15;;;;;;;1.02;1.02;;;;;;;;;;5083521;28;20522;-79
2024/01/20 06:00:42;;;;;;;2.08;1.92;;;;;;;;;;5073949;28;20029;-79
2024/01/20 06:03:10;;;;;;;1.27;1.23;;;;;;;;;;5080867;28;20040;-79
2024/01/20 06:05:38;;;;;;;1.17;1.17;;;;;;;;;;5083351;28;20528;-78
2024/01/20 06:08:05;;;;;;;0.82;0.82;;;;;;;;;;5077570;28;20036;-79
2024/01/20 06:10:32;;;;;;;1.85;1.42;;;;;;;;;;5079942;28;20083;-79
2024/01/20 06:13:00;;;;;;;2.60;1.08;;;;;;;;;;5084656;28;20101;-79
2024/01/20 06:15:27;;;;;;;3.03;2.65;;;;;;;;;;5060825;28;20044;-79
2024/01/20 06:17:55;;;;;;;2.35;2.22;;;;;;;;;;5082349;28;20516;-79
2024/01/20 06:20:22;;;;;;;2.38;2.17;;;;;;;;;;5059081;28;20121;-79
2024/01/20 06:22:50;;;;;;;0.32;0.32;;;;;;;;;;5064077;28;20127;-80
2024/01/20 06:25:18;;;;;;;7.35;4.95;;;;;;;;;;5077862;28;20068;-78
2024/01/20 06:27:45;;;;;;;3.85;2.17;;;;;;;;;;5075813;28;20326;-79
2024/01/20 06:30:13;;;;;;;4.03;2.50;;;;;;;;;;5081082;28;20470;-80
2024/01/20 06:32:41;;;;;;;2.50;2.33;;;;;;;;;;5084185;28;20536;-79
2024/01/20 06:35:08;;;;;;;4.50;3.20;;;;;;;;;;5078789;28;20052;-79
2024/01/20 06:37:36;;;;;;;2.55;2.35;;;;;;;;;;5081351;28;20048;-79
2024/01/20 06:40:03;;;;;;;1.38;1.27;;;;;;;;;;5078836;28;20040;-79
2024/01/20 06:42:31;;;;;;;5.47;4.25;;;;;;;;;;5070798;28;20501;-79
2024/01/20 06:44:58;;;;;;;3.25;2.53;;;;;;;;;;5066224;28;20135;-81
2024/01/20 06:47:29;;;;;;;2.25;1.92;;;;;;;;;;5066169;28;20116;-80
2024/01/20 06:49:57;;;;;;;1.60;1.50;;;;;;;;;;5078350;28;20048;-81
2024/01/20 06:52:25;;;;;;;1.88;1.77;;;;;;;;;;5080047;28;20040;-80
2024/01/20 06:54:52;;;;;;;3.10;2.85;;;;;;;;;;5077413;28;20032;-80
2024/01/20 06:57:19;;;;;;;3.50;3.00;;;;;;;;;;5077656;28;20040;-81
2024/01/20 06:59:47;;;;;;;2.70;1.90;;;;;;;;;;5075901;28;20643;-82
2024/01/20 07:02:16;;;;;;;1.42;1.38;;;;;;;;;;5077227;28;20055;-82
2024/01/20 07:04:43;;;;;;;3.35;2.65;;;;;;;;;;5075365;28;20045;-81
2024/01/20 07:07:11;;;;;;;0.95;0.95;;;;;;;;;;5079059;28;20063;-80
2024/01/20 07:09:42;;;;;;;8.93;5.45;;;;;;;;;;5071052;28;20511;-81
2024/01/20 07:12:09;;;;;;;6.13;3.57;;;;;;;;;;5066290;28;20668;-80
2024/01/20 07:14:37;;;;;;;1.42;1.42;;;;;;;;;;5067413;28;20068;-80
2024/01/20 07:17:05;;;;;;;2.60;2.10;;;;;;;;;;5073141;28;20044;-81
2024/01/20 07:19:32;;;;;;;1.88;1.55;;;;;;;;;;5050596;28;20098;-79
2024/01/20 07:22:00;;;;;;;2.17;1.98;;;;;;;;;;5053969;28;20083;-80
2024/01/20 07:24:29;;;;;;;7.80;5.85;;;;;;;;;;5068571;28;20075;-80
2024/01/20 07:26:56;;;;;;;4.97;3.60;;;;;;;;;;5067826;28;20457;-80
2024/01/20 07:29:24;;;;;;;1.60;1.52;;;;;;;;;;5074084;28;20040;-80
2024/01/20 07:31:51;;;;;;;9.55;7.88;;;;;;;;;;5072756;28;20052;-82
2024/01/20 07:34:19;;;;;;;2.92;1.25;;;;;;;;;;5065755;28;20493;-81
2024/01/20 07:36:47;;;;;;;8.13;4.30;;;;;;;;;;5078484;28;20497;-81
2024/01/20 07:39:14;;;;;;;1.88;0.85;;;;;;;;;;5080451;28;20130;-80
2024/01/20 07:41:42;;;;;;;8.05;7.40;;;;;;;;;;5072823;28;20513;-80
2024/01/20 07:44:09;;;;;;;5.05;3.22;;;;;;;;;;5077630;28;20051;-81
2024/01/20 07:46:37;;;;;;;4.10;2.00;;;;;;;;;;5077580;28;20049;-79
2024/01/20 07:49:04;;;;;;;14.43;8.45;;;;;;;;;;5085054;28;20062;-79
2024/01/20 07:51:32;;;;;;;4.97;4.38;;;;;;;;;;5081232;28;20131;-81
2024/01/20 07:53:59;;;;;;;14.75;7.53;;;;;;;;;;5072875;28;20072;-79
2024/01/20 07:56:27;;;;;;;5.28;4.35;;;;;;;;;;5076892;28;20044;-79
2024/01/20 07:58:55;;;;;;;12.13;6.32;;;;;;;;;;5078854;28;20103;-79
2024/01/20 08:01:22;;;;;;;3.03;2.83;;;;;;;;;;5073437;28;20068;-81
2024/01/20 08:03:50;;;;;;;6.40;5.03;;;;;;;;;;5081472;28;20053;-80
2024/01/20 08:06:18;;;;;;;6.28;4.05;;;;;;;;;;5078949;28;20036;-79
2024/01/20 08:08:45;;;;;;;6.05;5.35;;;;;;;;;;5075327;28;20044;-79
2024/01/20 08:11:13;;;;;;;5.30;4.88;;;;;;;;;;5077168;28;20040;-80
2024/01/20 08:13:40;;;;;;;2.65;2.55;;;;;;;;;;5075087;28;20068;-79
2024/01/20 08:16:08;;;;;;;8.63;7.57;;;;;;;;;;5078448;28;20041;-79
2024/01/20 08:18:36;;;;;;;9.10;6.00;;;;;;;;;;5064453;28;20036;-79
2024/01/20 08:21:06;;;;;;;5.70;4.57;;;;;;;;;;5077930;28;20036;-80
2024/01/20 08:23:34;;;;;;;8.18;6.10;;;;;;;;;;5073780;28;20048;-80
2024/01/20 08:26:03;;;;;;;7.25;4.00;;;;;;;;;;5075807;28;20129;-81
2024/01/20 08:28:32;;;;;;;7.30;4.50;;;;;;;;;;5082027;28;20050;-80
2024/01/20 08:31:00;;;;;;;2.67;2.47;;;;;;;;;;5083953;28;20103;-80
2024/01/20 08:33:27;;;;;;;4.45;3.95;;;;;;;;;;5069364;28;20068;-81
2024/01/20 08:35:55;;;;;;;4.50;4.10;;;;;;;;;;5079300;28;20050;-80
2024/01/20 08:38:23;;;;;;;11.35;8.90;;;;;;;;;;5082881;28;20075;-81
2024/01/20 08:40:50;;;;;;;7.13;4.32;;;;;;;;;;5077790;28;20098;-80
2024/01/20 08:43:18;;;;;;;6.15;3.45;;;;;;;;;;5077484;28;20056;-81
2024/01/20 08:45:46;;;;;;;3.30;3.00;;;;;;;;;;5080705;28;20317;-80
2024/01/20 08:48:14;;;;;;;7.38;4.97;;;;;;;;;;5083963;28;20063;-80
2024/01/20 08:50:41;;;;;;;11.82;8.25;;;;;;;;;;5079677;28;20083;-81
2024/01/20 08:53:09;;;;;;;3.60;3.22;;;;;;;;;;5084514;28;20049;-83
2024/01/20 08:55:38;;;;;;;2.88;2.70;;;;;;;;;;5082806;28;20112;-81
2024/01/20 08:58:05;;;;;;;2.17;1.98;;;;;;;;;;5073105;28;20259;-80
2024/01/20 09:00:33;;;;;;;2.60;2.40;;;;;;;;;;5075209;28;20135;-81
2024/01/20 09:03:00;;;;;;;4.60;4.05;;;;;;;;;;5079554;28;20421;-83
2024/01/20 09:05:28;;;;;;;4.82;2.60;;;;;;;;;;5051947;28;20059;-82
2024/01/20 09:08:09;;;;;;;3.45;3.08;;;;;;;;;;5066158;28;20059;-82
2024/01/20 09:10:37;;;;;;;6.00;5.25;;;;;;;;;;5076545;28;20047;-81
2024/01/20 09:13:05;;;;;;;3.03;2.72;;;;;;;;;;5077451;28;20201;-83
2024/01/20 09:15:33;;;;;;;4.03;3.72;;;;;;;;;;5075270;28;20051;-84
2024/01/20 09:18:01;;;;;;;1.45;0.80;;;;;;;;;;5073911;28;20157;-81
2024/01/20 09:20:29;;;;;;;3.53;2.83;;;;;;;;;;5076681;28;20048;-80
2024/01/20 09:22:57;;;;;;;5.55;3.33;;;;;;;;;;5083695;28;20076;-81
2024/01/20 09:25:24;;;;;;;8.10;6.10;;;;;;;;;;5077086;28;20123;-82
2024/01/20 09:27:52;;;;;;;4.35;3.95;;;;;;;;;;5079843;28;20052;-80
2024/01/20 09:30:20;;;;;;;1.92;1.88;;;;;;;;;;5084636;28;20044;-82
2024/01/20 09:32:48;;;;;;;8.70;3.65;;;;;;;;;;5085647;28;20135;-80
2024/01/20 09:35:17;;;;;;;11.48;7.72;;;;;;;;;;5089504;28;20048;-83
2024/01/20 09:37:45;;;;;;;4.68;2.92;;;;;;;;;;5085822;28;20040;-81
2024/01/20 09:43:53;;;;;;;10.38;5.45;;;;;;;;;;4989756;28;20034;-81
2024/01/20 09:54:25;;;;;;;10.48;5.25;;;;;;;;;;5035489;28;20057;-81
2024/01/20 09:57:26;;;;;;;3.47;3.08;;;;;;;;;;5015301;28;20050;-81
2024/01/20 10:00:28;;;;;;;4.20;3.67;;;;;;;;;;5006842;23;20045;-78
2024/01/20 10:02:57;;;;;;;2.45;2.15;;;;;;;;;;4995732;28;20042;-77
2024/01/20 10:05:24;;;;;;;4.15;3.10;;;;;;;;;;5002142;28;20144;-77
2024/01/20 10:07:52;;;;;;;4.15;3.78;;;;;;;;;;4999377;28;20046;-77
2024/01/20 10:10:20;;;;;;;1.67;1.40;;;;;;;;;;5004934;28;20053;-77
2024/01/20 10:12:49;;;;;;;2.70;2.28;;;;;;;;;;4979196;28;20158;-77
2024/01/20 10:15:21;;;;;;;3.97;3.63;;;;;;;;;;4997161;28;20049;-78
2024/01/20 10:17:49;;;;;;;5.57;4.85;;;;;;;;;;5016368;28;20045;-78
2024/01/20 10:20:23;;;;;;;14.20;4.00;;;;;;;;;;5005743;28;20058;-77
2024/01/20 10:22:53;;;;;;;1.83;1.73;;;;;;;;;;5015899;28;20467;-77
2024/01/20 10:25:21;;;;;;;1.02;0.95;;;;;;;;;;5003454;28;20041;-77
2024/01/20 10:27:49;;;;;;;3.90;3.55;;;;;;;;;;5001768;28;20763;-78
2024/01/20 10:30:18;;;;;;;3.35;3.10;;;;;;;;;;4996482;28;20456;-78
2024/01/20 10:32:51;;;;;;;8.32;6.47;;;;;;;;;;5012780;28;20058;-77
2024/01/20 10:35:35;;;;;;;9.82;5.75;;;;;;;;;;5002532;28;20443;-77
2024/01/20 10:38:05;;;;;;;3.92;3.50;;;;;;;;;;5002480;28;20046;-77
2024/01/20 10:40:34;;;;;;;3.03;2.72;;;;;;;;;;4999435;28;20323;-77
2024/01/20 10:43:05;;;;;;;7.88;5.68;;;;;;;;;;4995211;28;20053;-77
2024/01/20 10:45:36;;;;;;;3.70;3.40;;;;;;;;;;5002034;28;20046;-77
2024/01/20 10:48:18;;;;;;;4.75;3.40;;;;;;;;;;5003312;28;20503;-77
2024/01/20 10:50:50;;;;;;;9.38;5.85;;;;;;;;;;5004915;28;20045;-79
2024/01/20 10:53:17;;;;;;;4.53;4.10;;;;;;;;;;5001584;28;20046;-77
2024/01/20 10:55:46;;;;;;;10.07;5.97;;;;;;;;;;5005038;28;20152;-76
2024/01/20 10:58:15;;;;;;;4.63;4.20;;;;;;;;;;5008039;28;20491;-77
2024/01/20 11:00:43;;;;;;;5.35;4.82;;;;;;;;;;5007318;28;20072;-77
2024/01/20 11:03:11;;;;;;;0.28;0.28;;;;;;;;;;5005417;28;20053;-77
2024/01/20 11:05:38;;;;;;;2.63;1.83;;;;;;;;;;4987530;28;20046;-77
2024/01/20 11:08:07;;;;;;;2.72;1.60;;;;;;;;;;5000239;28;20100;-77
2024/01/20 11:10:47;;;;;;;6.43;4.95;;;;;;;;;;4965513;28;23634;-76
2024/01/20 11:13:15;;;;;;;3.97;3.63;;;;;;;;;;4998185;28;20081;-76
2024/01/20 11:15:49;;;;;;;1.40;0.88;;;;;;;;;;5016155;28;20045;-77
2024/01/20 11:18:20;;;;;;;7.45;6.65;;;;;;;;;;5004809;28;20076;-75
2024/01/20 11:20:54;;;;;;;1.85;1.75;;;;;;;;;;5005284;28;20057;-77
2024/01/20 11:23:22;;;;;;;5.10;3.78;;;;;;;;;;5003749;28;20056;-77
2024/01/20 11:25:49;;;;;;;3.30;3.10;;;;;;;;;;4998283;28;20054;-77
2024/01/20 11:28:26;;;;;;;2.90;2.75;;;;;;;;;;5002369;28;20465;-77
2024/01/20 11:30:54;;;;;;;0.50;0.50;;;;;;;;;;4997702;28;20042;-77
2024/01/20 11:33:21;;;;;;;0.90;0.90;;;;;;;;;;5003157;28;20052;-77
2024/01/20 11:35:52;;;;;;;1.85;1.75;;;;;;;;;;5002827;28;20566;-77
2024/01/20 11:38:20;;;;;;;1.92;1.63;;;;;;;;;;5004180;28;20103;-76
2024/01/20 11:41:00;;;;;;;0.95;0.95;;;;;;;;;;5004623;28;20147;-77
2024/01/20 11:43:28;;;;;;;2.42;1.40;;;;;;;;;;5015093;28;20487;-77
2024/01/20 11:45:56;;;;;;;1.42;1.38;;;;;;;;;;5004632;28;20077;-76
2024/01/20 11:48:25;;;;;;;1.05;1.05;;;;;;;;;;5003482;28;20132;-77
2024/01/20 11:50:53;;;;;;;0.38;0.38;;;;;;;;;;5002870;28;20103;-77
2024/01/20 11:53:21;;;;;;;2.63;2.22;;;;;;;;;;5003310;28;20042;-76
2024/01/20 11:55:53;;;;;;;2.03;1.92;;;;;;;;;;5003962;28;20395;-77
2024/01/20 11:58:20;;;;;;;2.00;1.88;;;;;;;;;;5001282;28;20515;-77
2024/01/20 12:00:51;;;;;;;3.70;2.35;;;;;;;;;;5005385;28;20141;-78
2024/01/20 12:03:19;;;;;;;0.30;0.30;;;;;;;;;;5007727;28;20080;-77
2024/01/20 12:05:46;;;;;;;2.90;2.60;;;;;;;;;;5004172;28;20530;-78
2024/01/20 12:08:15;;;;;;;0.10;0.10;;;;;;;;;;5003628;28;20057;-78
2024/01/20 12:10:42;;;;;;;1.50;1.45;;;;;;;;;;5004787;28;20057;-78
2024/01/20 12:13:13;;;;;;;3.30;3.00;;;;;;;;;;5004795;28;20168;-77
2024/01/20 12:15:44;;;;;;;0.35;0.28;;;;;;;;;;5001302;28;20108;-78
2024/01/20 12:18:11;;;;;;;0.90;0.90;;;;;;;;;;5004082;28;20054;-77
2024/01/20 12:20:40;;;;;;;1.90;1.80;;;;;;;;;;5000914;28;20104;-78
2024/01/20 12:23:07;;;;;;;2.05;1.85;;;;;;;;;;5008002;28;20046;-78
2024/01/20 12:25:35;;;;;;;0.45;0.45;;;;;;;;;;5008503;28;20119;-78
2024/01/20 12:28:03;;;;;;;0.80;0.80;;;;;;;;;;5007656;28;20420;-77
2024/01/20 12:30:31;;;;;;;1.05;1.05;;;;;;;;;;5008635;28;20069;-78
2024/01/20 12:32:58;;;;;;;2.35;2.03;;;;;;;;;;5007770;28;20042;-77
2024/01/20 12:35:26;;;;;;;0.22;0.22;;;;;;;;;;5004467;28;20046;-78
2024/01/20 12:37:53;;;;;;;0.22;0.22;;;;;;;;;;5008364;28;20054;-78
2024/01/20 12:40:21;;;;;;;4.05;1.85;;;;;;;;;;5010630;28;20065;-78
2024/01/20 12:42:48;;;;;;;4.93;2.60;;;;;;;;;;5005776;28;20159;-78
2024/01/20 12:45:16;;;;;;;7.43;4.90;;;;;;;;;;5004267;28;20524;-78
2024/01/20 12:47:43;;;;;;;3.13;2.90;;;;;;;;;;5010997;28;20715;-78
2024/01/20 12:50:11;;;;;;;2.35;2.17;;;;;;;;;;5011061;28;20057;-78
2024/01/20 12:52:39;;;;;;;6.40;3.05;;;;;;;;;;5004199;28;20046;-77
2024/01/20 12:55:07;;;;;;;0.63;0.63;;;;;;;;;;5009529;28;20068;-78
2024/01/20 12:57:34;;;;;;;2.53;2.38;;;;;;;;;;5009459;28;20042;-78
2024/01/20 13:00:02;;;;;;;1.65;1.55;;;;;;;;;;5011994;28;20049;-78
2024/01/20 13:02:30;;;;;;;1.38;1.30;;;;;;;;;;5004512;28;20053;-77
2024/01/20 13:04:58;;;;;;;1.67;1.27;;;;;;;;;;5011712;28;20515;-78
2024/01/20 13:07:26;;;;;;;3.97;3.25;;;;;;;;;;5008638;28;20058;-78
2024/01/20 13:09:54;;;;;;;2.10;1.70;;;;;;;;;;5008635;28;20050;-78
2024/01/20 13:12:21;;;;;;;2.47;1.65;;;;;;;;;;5009063;28;20061;-78
2024/01/20 13:14:48;;;;;;;4.50;4.10;;;;;;;;;;5005125;28;20081;-77
2024/01/20 13:17:16;;;;;;;1.15;1.10;;;;;;;;;;5008322;28;20277;-78
2024/01/20 13:19:44;;;;;;;0.50;0.50;;;;;;;;;;5010902;28;20053;-78
2024/01/20 13:22:12;;;;;;;0.52;0.52;;;;;;;;;;5010663;28;20069;-78
2024/01/20 13:24:39;;;;;;;3.75;2.50;;;;;;;;;;5015216;28;20778;-78
2024/01/20 13:27:07;;;;;;;4.00;2.92;;;;;;;;;;5003143;28;20045;-78
2024/01/20 13:29:35;;;;;;;1.38;1.30;;;;;;;;;;5005661;28;20515;-78
2024/01/20 13:32:02;;;;;;;1.05;0.95;;;;;;;;;;5007687;28;20141;-78
2024/01/20 13:34:32;;;;;;;2.00;1.27;;;;;;;;;;5010825;28;20129;-78
2024/01/20 13:37:01;;;;;;;1.27;1.25;;;;;;;;;;5011208;28;20050;-78
2024/01/20 13:39:28;;;;;;;1.15;0.75;;;;;;;;;;5009345;28;20049;-78
2024/01/20 13:41:55;;;;;;;0.30;0.30;;;;;;;;;;5012587;28;20661;-78
2024/01/20 13:44:23;;;;;;;3.10;2.78;;;;;;;;;;5009092;28;20564;-78
2024/01/20 13:46:50;;;;;;;2.28;0.65;;;;;;;;;;5011203;28;20056;-77
2024/01/20 13:49:18;;;;;;;1.92;1.83;;;;;;;;;;5024040;28;20038;-78
2024/01/20 13:51:46;;;;;;;1.50;1.35;;;;;;;;;;5003627;28;20042;-78
2024/01/20 13:54:14;;;;;;;0.95;0.95;;;;;;;;;;5004997;28;20120;-77
2024/01/20 13:56:41;;;;;;;0.80;0.68;;;;;;;;;;5001837;28;20117;-78
2024/01/20 13:59:09;;;;;;;0.80;0.73;;;;;;;;;;5002949;28;20073;-77
2024/01/20 14:01:36;;;;;;;0.57;0.57;;;;;;;;;;5010824;28;20133;-78
2024/01/20 14:04:04;;;;;;;1.45;1.35;;;;;;;;;;5009074;28;20076;-78
2024/01/20 14:06:32;;;;;;;1.58;0.80;;;;;;;;;;5008918;28;20054;-78
2024/01/20 14:08:59;;;;;;;0.22;0.22;;;;;;;;;;5010410;28;20054;-78
2024/01/20 14:11:27;;;;;;;0.70;0.70;;;;;;;;;;5010751;28;20068;-78
2024/01/20 14:13:54;;;;;;;0.50;0.50;;;;;;;;;;5006593;28;20045;-78
2024/01/20 14:16:22;;;;;;;0.30;0.30;;;;;;;;;;5001144;28;20050;-78
2024/01/20 14:18:49;;;;;;;1.13;0.95;;;;;;;;;;5011723;28;20054;-77
2024/01/20 14:21:17;;;;;;;1.17;0.93;;;;;;;;;;5010221;28;20265;-78
2024/01/20 14:23:44;;;;;;;0.80;0.80;;;;;;;;;;5011262;28;20066;-77
2024/01/20 14:26:12;;;;;;;1.48;1.38;;;;;;;;;;5011522;28;20045;-78
2024/01/20 14:28:39;;;;;;;0.30;0.30;;;;;;;;;;5010694;28;20155;-78
2024/01/20 14:31:07;;;;;;;1.98;1.50;;;;;;;;;;5009798;28;20050;-77
2024/01/20 14:33:35;;;;;;;0.82;0.82;;;;;;;;;;5003273;28;20504;-78
2024/01/20 14:36:02;;;;;;;0.90;0.90;;;;;;;;;;5005023;28;20074;-78
2024/01/20 14:38:30;;;;;;;0.85;0.85;;;;;;;;;;5007356;28;20405;-78
2024/01/20 14:40:57;;;;;;;6.93;1.85;;;;;;;;;;5003830;28;20050;-77
2024/01/20 14:43:25;;;;;;;1.85;1.77;;;;;;;;;;5009363;28;20115;-77
2024/01/20 14:45:52;;;;;;;15.95;2.95;;;;;;;;;;5001773;28;20054;-77
2024/01/20 14:48:19;;;;;;;3.17;2.65;;;;;;;;;;5000321;28;20045;-77
2024/01/20 14:50:47;;;;;;;5.05;4.03;;;;;;;;;;5001634;28;20559;-76
2024/01/20 14:53:15;;;;;;;1.17;1.08;;;;;;;;;;5007559;28;20069;-76
2024/01/20 14:55:42;;;;;;;1.92;1.52;;;;;;;;;;5004269;28;20530;-77
2024/01/20 14:58:10;;;;;;;1.38;1.10;;;;;;;;;;5001005;28;20041;-77
2024/01/20 15:00:38;;;;;;;1.55;1.40;;;;;;;;;;5001010;28;20384;-76